Time;durP1;ratioP1;P1;durP2;ratioP2;P2;SDS_P1;SDS_P2;PMS_P1;PMS_P2;Temp;Humidity;BMP_temperature;BMP_pressure;BME280_temperature;BME280_humidity;BME280_pressure;Samples;Min_cycle;Max_cycle;Signal;HPM_P1;HPM_P2
2021/04/06 00:00:01;;;;;;;4.97;2.08;;;-0.40;99.90;;;;;;5070598;28;20056;-73
2021/04/06 00:02:29;;;;;;;7.07;1.92;;;-0.40;99.90;;;;;;5072084;28;20028;-73
2021/04/06 00:04:59;;;;;;;4.32;1.95;;;-0.50;99.90;;;;;;5070627;28;20021;-73
2021/04/06 00:07:26;;;;;;;4.28;1.58;;;-0.50;99.90;;;;;;5070486;28;20048;-73
2021/04/06 00:09:55;;;;;;;3.88;1.70;;;-0.50;99.90;;;;;;5070368;28;20028;-73
2021/04/06 00:12:22;;;;;;;3.03;1.60;;;-0.50;99.90;;;;;;5072089;28;20020;-70
2021/04/06 00:14:50;;;;;;;10.45;2.00;;;-0.50;99.90;;;;;;5070476;28;20072;-72
2021/04/06 00:17:18;;;;;;;3.17;1.88;;;-0.50;99.90;;;;;;5070144;28;20115;-72
2021/04/06 00:19:46;;;;;;;8.45;2.22;;;-0.50;99.90;;;;;;5071618;28;20449;-72
2021/04/06 00:22:14;;;;;;;3.40;1.60;;;-0.50;99.90;;;;;;5070015;28;20497;-72
2021/04/06 00:24:43;;;;;;;4.72;1.67;;;-0.60;99.90;;;;;;5071332;28;20021;-72
2021/04/06 00:27:37;;;;;;;4.38;1.77;;;-0.60;99.90;;;;;;5070027;28;20028;-72
2021/04/06 00:30:07;;;;;;;2.42;1.92;;;-0.60;99.90;;;;;;5071037;28;20436;-72
2021/04/06 00:32:33;;;;;;;5.45;1.85;;;-0.60;99.90;;;;;;5071114;28;20027;-72
2021/04/06 00:35:01;;;;;;;4.57;1.58;;;-0.60;99.90;;;;;;5069854;28;20097;-73
2021/04/06 00:37:28;;;;;;;2.38;1.15;;;-0.60;99.90;;;;;;5070933;28;20429;-72
2021/04/06 00:40:10;;;;;;;4.70;1.67;;;-0.60;99.90;;;;;;5069741;28;20025;-72
2021/04/06 00:42:36;;;;;;;4.47;1.83;;;-0.60;99.90;;;;;;5070961;28;20017;-72
2021/04/06 00:45:17;;;;;;;4.45;1.63;;;-0.60;99.90;;;;;;5070889;28;20025;-72
2021/04/06 00:47:43;;;;;;;7.75;1.65;;;-0.60;99.90;;;;;;5069520;28;20056;-72
2021/04/06 00:50:14;;;;;;;2.70;1.80;;;-0.70;99.90;;;;;;5070698;28;20074;-72
2021/04/06 00:52:43;;;;;;;4.47;1.90;;;-0.70;99.90;;;;;;5070644;28;20490;-72
2021/04/06 00:55:15;;;;;;;4.55;1.85;;;-0.70;99.90;;;;;;5070730;28;20111;-72
2021/04/06 00:57:43;;;;;;;6.50;2.00;;;-0.80;99.90;;;;;;5069356;28;20119;-72
2021/04/06 01:00:24;;;;;;;3.38;2.05;;;-0.70;99.90;;;;;;5070465;28;20521;-72
2021/04/06 01:03:00;;;;;;;3.15;1.83;;;-0.80;99.90;;;;;;5068874;28;20020;-72
2021/04/06 01:05:28;;;;;;;3.13;1.98;;;-0.80;99.90;;;;;;5068707;28;20012;-72
2021/04/06 01:07:56;;;;;;;3.40;2.00;;;-0.70;99.90;;;;;;5070333;28;20052;-72
2021/04/06 01:10:27;;;;;;;5.80;2.13;;;-0.70;99.90;;;;;;5069077;28;20024;-73
2021/04/06 01:12:54;;;;;;;5.25;2.03;;;-0.70;99.90;;;;;;5069134;28;20063;-72
2021/04/06 01:15:23;;;;;;;4.60;2.35;;;-0.60;99.90;;;;;;5069063;28;20020;-72
2021/04/06 01:17:49;;;;;;;5.55;2.20;;;-0.60;99.90;;;;;;5068886;28;20028;-72
2021/04/06 01:20:17;;;;;;;4.82;2.30;;;-0.60;99.90;;;;;;5068777;28;20029;-73
2021/04/06 01:22:46;;;;;;;4.43;2.50;;;-0.60;99.90;;;;;;5068855;28;20508;-72
2021/04/06 01:25:20;;;;;;;5.70;2.35;;;-0.60;99.90;;;;;;5070090;28;20021;-72
2021/04/06 01:27:46;;;;;;;3.42;2.13;;;-0.60;99.90;;;;;;5070382;28;20545;-72
2021/04/06 01:30:12;;;;;;;5.25;2.42;;;-0.60;99.90;;;;;;5068546;28;20068;-73
2021/04/06 01:32:38;;;;;;;5.40;2.50;;;-0.60;99.90;;;;;;5068660;28;20028;-73
2021/04/06 01:35:08;;;;;;;4.82;2.30;;;-0.70;99.90;;;;;;5068642;28;20024;-73
2021/04/06 01:37:34;;;;;;;3.83;2.08;;;-0.70;99.90;;;;;;5068525;28;20028;-72
2021/04/06 01:40:02;;;;;;;6.90;2.83;;;-0.70;99.90;;;;;;5068531;28;20023;-72
2021/04/06 01:42:31;;;;;;;4.68;2.45;;;-0.70;99.90;;;;;;5068564;28;20021;-72
2021/04/06 01:44:59;;;;;;;3.47;2.38;;;-0.70;99.90;;;;;;5069779;28;20016;-72
2021/04/06 01:47:27;;;;;;;8.32;3.03;;;-0.70;99.90;;;;;;5068506;28;20112;-72
2021/04/06 01:49:53;;;;;;;6.07;3.33;;;-0.70;99.90;;;;;;5068855;28;20432;-72
2021/04/06 01:52:20;;;;;;;7.43;2.72;;;-0.60;99.90;;;;;;5068377;28;20029;-72
2021/04/06 01:55:08;;;;;;;5.45;2.65;;;-0.70;99.90;;;;;;5068447;28;20028;-72
2021/04/06 01:57:36;;;;;;;4.82;3.03;;;-0.70;99.90;;;;;;5068171;28;20028;-72
2021/04/06 02:00:18;;;;;;;6.32;3.00;;;-0.80;99.90;;;;;;5068105;28;20046;-72
2021/04/06 02:02:45;;;;;;;6.40;2.92;;;-0.90;99.90;;;;;;5068220;28;20028;-72
2021/04/06 02:05:13;;;;;;;5.63;3.20;;;-1.00;99.90;;;;;;5068344;28;20017;-72
2021/04/06 02:07:40;;;;;;;13.55;4.43;;;-1.00;99.90;;;;;;5068032;28;20028;-72
2021/04/06 02:10:08;;;;;;;7.07;3.38;;;-1.10;99.90;;;;;;5068241;28;20024;-72
2021/04/06 02:12:44;;;;;;;5.40;3.10;;;-1.20;99.90;;;;;;5068269;28;20386;-72
2021/04/06 02:15:12;;;;;;;8.48;3.38;;;-1.20;99.90;;;;;;5067851;28;20036;-72
2021/04/06 02:17:50;;;;;;;11.18;3.53;;;-1.30;99.90;;;;;;5067978;28;20046;-72
2021/04/06 02:20:21;;;;;;;6.63;3.47;;;-1.30;99.90;;;;;;5067729;28;20031;-73
2021/04/06 02:22:57;;;;;;;6.88;3.60;;;-1.30;99.90;;;;;;5067924;28;20020;-72
2021/04/06 02:25:23;;;;;;;7.20;3.67;;;-1.40;99.90;;;;;;5067865;28;20056;-72
2021/04/06 02:27:48;;;;;;;7.03;3.50;;;-1.50;99.90;;;;;;5067823;28;20146;-73
2021/04/06 02:30:14;;;;;;;8.20;3.75;;;-1.60;99.90;;;;;;5067538;28;20444;-72
2021/04/06 02:32:40;;;;;;;6.78;4.00;;;-1.60;99.90;;;;;;5067759;28;20025;-72
2021/04/06 02:35:08;;;;;;;7.32;4.13;;;-1.60;99.90;;;;;;5067804;28;20504;-72
2021/04/06 02:37:37;;;;;;;7.25;4.03;;;-1.60;99.90;;;;;;5067781;28;20033;-72
2021/04/06 02:40:07;;;;;;;6.20;3.28;;;-1.70;99.90;;;;;;5067689;28;20498;-72
2021/04/06 02:42:35;;;;;;;6.65;3.90;;;-1.70;99.90;;;;;;5067615;28;20524;-72
2021/04/06 02:45:18;;;;;;;11.45;3.95;;;-1.70;99.90;;;;;;5067704;28;20432;-72
2021/04/06 02:47:47;;;;;;;8.93;4.57;;;-1.80;99.90;;;;;;5067725;28;20028;-72
2021/04/06 02:50:25;;;;;;;10.23;4.40;;;-1.90;99.90;;;;;;5067539;28;20060;-73
2021/04/06 02:52:52;;;;;;;13.23;5.18;;;-1.90;99.90;;;;;;5067601;28;20024;-72
2021/04/06 02:55:20;;;;;;;7.70;4.55;;;-2.00;99.90;;;;;;5067567;28;20025;-72
2021/04/06 02:57:55;;;;;;;11.60;5.10;;;-2.00;99.90;;;;;;5067427;28;20023;-72
2021/04/06 03:00:27;;;;;;;10.60;5.50;;;-2.00;99.90;;;;;;5067491;28;20025;-73
2021/04/06 03:03:22;;;;;;;9.03;4.47;;;-2.00;99.90;;;;;;5067545;28;20539;-72
2021/04/06 03:05:59;;;;;;;9.52;4.63;;;-2.00;99.90;;;;;;5067598;28;20074;-72
2021/04/06 03:08:32;;;;;;;8.38;4.57;;;-2.00;99.90;;;;;;5067489;28;20047;-72
2021/04/06 03:10:58;;;;;;;9.30;4.45;;;-2.00;99.90;;;;;;5067404;28;20111;-72
2021/04/06 03:13:28;;;;;;;14.07;5.10;;;-2.10;99.90;;;;;;5067480;28;20115;-72
2021/04/06 03:15:56;;;;;;;8.88;5.15;;;-2.10;99.90;;;;;;5067448;28;20032;-72
2021/04/06 03:18:40;;;;;;;10.00;4.90;;;-2.10;99.90;;;;;;5067257;28;20052;-72
2021/04/06 03:21:08;;;;;;;7.85;4.60;;;-2.20;99.90;;;;;;5067315;28;20028;-72
2021/04/06 03:23:34;;;;;;;8.77;5.05;;;-2.10;99.90;;;;;;5067312;28;20031;-72
2021/04/06 03:26:01;;;;;;;11.45;4.63;;;-2.20;99.90;;;;;;5067322;28;20031;-72
2021/04/06 03:28:32;;;;;;;9.98;4.78;;;-2.20;99.90;;;;;;5070465;28;20024;-73
2021/04/06 03:31:16;;;;;;;13.27;6.03;;;-2.20;99.90;;;;;;5070596;28;20032;-72
2021/04/06 03:33:46;;;;;;;10.73;4.65;;;-2.20;99.90;;;;;;5070813;28;20032;-72
2021/04/06 03:36:39;;;;;;;11.63;5.65;;;-2.30;99.90;;;;;;5070825;28;20029;-72
2021/04/06 03:39:07;;;;;;;13.48;5.57;;;-2.30;99.90;;;;;;5070871;28;20040;-72
2021/04/06 03:41:34;;;;;;;10.48;5.50;;;-2.30;99.90;;;;;;5070735;28;20116;-72
2021/04/06 03:44:11;;;;;;;11.02;5.30;;;-2.30;99.90;;;;;;5070715;28;20024;-72
2021/04/06 03:46:39;;;;;;;8.82;4.75;;;-2.30;99.90;;;;;;5070964;28;20021;-72
2021/04/06 03:49:22;;;;;;;9.80;5.50;;;-2.30;99.90;;;;;;5070442;28;20020;-72
2021/04/06 03:51:52;;;;;;;11.48;4.75;;;-2.30;99.90;;;;;;5070559;28;20053;-72
2021/04/06 03:54:39;;;;;;;10.48;5.35;;;-2.30;99.90;;;;;;5072032;28;20434;-72
2021/04/06 03:57:50;;;;;;;10.65;5.50;;;-2.30;99.90;;;;;;5070310;28;20464;-72
2021/04/06 04:00:17;;;;;;;11.00;5.57;;;-2.30;99.90;;;;;;5032799;28;20028;-71
2021/04/06 04:02:42;;;;;;;13.07;5.50;;;-2.40;99.90;;;;;;5032700;28;20044;-72
2021/04/06 04:05:08;;;;;;;9.07;4.82;;;-2.40;99.90;;;;;;5050944;28;20432;-72
2021/04/06 04:07:38;;;;;;;9.75;5.35;;;-2.50;99.90;;;;;;5070104;28;20379;-72
2021/04/06 04:10:08;;;;;;;10.90;5.30;;;-2.40;99.90;;;;;;5070124;28;20063;-72
2021/04/06 04:12:33;;;;;;;9.95;4.80;;;-2.40;99.90;;;;;;5070365;28;20021;-72
2021/04/06 04:14:59;;;;;;;13.77;4.68;;;-2.40;99.90;;;;;;5070114;28;20031;-72
2021/04/06 04:17:26;;;;;;;9.05;4.85;;;-2.40;99.90;;;;;;5069899;28;20029;-71
2021/04/06 04:19:52;;;;;;;10.68;5.00;;;-2.40;99.90;;;;;;5069922;28;20052;-72
2021/04/06 04:22:17;;;;;;;10.38;5.07;;;-2.40;99.90;;;;;;5069896;28;20031;-71
2021/04/06 04:24:43;;;;;;;9.50;4.32;;;-2.40;99.90;;;;;;5069956;28;20020;-72
2021/04/06 04:27:09;;;;;;;10.15;4.47;;;-2.40;99.90;;;;;;5069830;28;20032;-72
2021/04/06 04:29:34;;;;;;;11.57;5.05;;;-2.40;99.90;;;;;;5069534;28;20403;-72
2021/04/06 04:32:00;;;;;;;6.82;4.32;;;-2.40;99.90;;;;;;5069824;28;20024;-72
2021/04/06 04:34:25;;;;;;;7.80;4.78;;;-2.40;99.90;;;;;;5069719;28;20515;-72
2021/04/06 04:36:51;;;;;;;11.00;5.32;;;-2.50;99.90;;;;;;5069635;28;20020;-72
2021/04/06 04:39:17;;;;;;;7.07;4.28;;;-2.50;99.90;;;;;;5069427;28;20482;-72
2021/04/06 04:41:42;;;;;;;15.45;5.10;;;-2.40;99.90;;;;;;5069635;28;20121;-72
2021/04/06 04:44:08;;;;;;;12.27;7.00;;;-2.40;99.90;;;;;;5069522;28;20016;-72
2021/04/06 04:46:33;;;;;;;10.43;5.30;;;-2.30;99.90;;;;;;5069460;28;20025;-72
2021/04/06 04:49:03;;;;;;;12.15;5.68;;;-2.30;99.90;;;;;;5069630;28;20028;-72
2021/04/06 04:51:29;;;;;;;7.53;4.20;;;-2.30;99.90;;;;;;5069785;28;20045;-72
2021/04/06 04:53:55;;;;;;;12.50;6.07;;;-2.30;99.90;;;;;;5069311;28;20085;-72
2021/04/06 04:56:20;;;;;;;10.68;5.00;;;-2.30;99.90;;;;;;5069246;28;20037;-71
2021/04/06 04:58:46;;;;;;;10.80;5.68;;;-2.20;99.90;;;;;;5069127;28;20389;-73
2021/04/06 05:01:12;;;;;;;9.50;4.88;;;-2.10;99.90;;;;;;5069205;28;20141;-72
2021/04/06 05:03:38;;;;;;;9.70;4.82;;;-1.90;99.90;;;;;;5069141;28;20025;-72
2021/04/06 05:06:04;;;;;;;9.70;4.88;;;-1.80;99.90;;;;;;5069163;28;20028;-72
2021/04/06 05:08:29;;;;;;;7.95;4.70;;;-1.70;99.90;;;;;;5069514;28;20343;-72
2021/04/06 05:10:55;;;;;;;8.65;4.30;;;-1.60;99.90;;;;;;5068896;28;20021;-72
2021/04/06 05:13:20;;;;;;;7.68;4.35;;;-1.50;99.90;;;;;;5068930;28;20116;-72
2021/04/06 05:15:46;;;;;;;10.20;4.68;;;-1.40;99.90;;;;;;5068889;28;20185;-72
2021/04/06 05:18:12;;;;;;;9.85;4.10;;;-1.30;99.90;;;;;;5068781;28;20498;-72
2021/04/06 05:20:37;;;;;;;10.50;3.80;;;-1.30;99.90;;;;;;5068755;28;20024;-72
2021/04/06 05:23:03;;;;;;;9.45;4.18;;;-1.30;99.90;;;;;;5068863;28;20017;-72
2021/04/06 05:25:28;;;;;;;6.13;4.20;;;-1.40;99.90;;;;;;5069984;28;20028;-71
2021/04/06 05:27:54;;;;;;;11.43;4.50;;;-1.50;99.90;;;;;;5068638;28;20508;-72
2021/04/06 05:30:20;;;;;;;8.68;4.13;;;-1.50;99.90;;;;;;5083651;22;20037;-74
2021/04/06 05:32:46;;;;;;;12.15;5.13;;;-1.50;99.90;;;;;;5068673;28;20021;-73
2021/04/06 05:35:12;;;;;;;9.68;4.00;;;-1.40;99.90;;;;;;5068557;28;20020;-73
2021/04/06 05:37:37;;;;;;;5.38;3.70;;;-1.50;99.90;;;;;;5068544;28;20116;-73
2021/04/06 05:40:05;;;;;;;5.95;4.75;;;-1.30;99.90;;;;;;5067310;28;20242;-74
2021/04/06 05:42:30;;;;;;;7.88;4.32;;;-1.20;99.90;;;;;;5056887;28;20025;-74
2021/04/06 05:44:56;;;;;;;8.90;4.05;;;-1.20;99.90;;;;;;5068271;28;20078;-74
2021/04/06 05:47:36;;;;;;;7.45;4.78;;;-1.20;99.90;;;;;;5069046;28;20031;-74
2021/04/06 05:50:03;;;;;;;10.40;4.47;;;-1.20;99.90;;;;;;5067928;28;20074;-74
2021/04/06 05:52:30;;;;;;;8.73;4.25;;;-1.20;99.90;;;;;;5068441;28;20024;-74
2021/04/06 05:54:58;;;;;;;8.88;4.20;;;-1.10;99.90;;;;;;5068392;28;20029;-73
2021/04/06 05:57:24;;;;;;;8.32;4.50;;;-1.00;99.90;;;;;;5068367;28;20036;-73
2021/04/06 05:59:50;;;;;;;5.20;4.05;;;-0.80;99.90;;;;;;5068208;28;20032;-74
2021/04/06 06:02:16;;;;;;;5.95;4.38;;;-0.80;99.90;;;;;;5069605;28;20047;-74
2021/04/06 06:04:42;;;;;;;12.18;5.38;;;-0.60;99.90;;;;;;5068285;28;20073;-74
2021/04/06 06:07:07;;;;;;;8.13;4.55;;;-0.50;99.90;;;;;;5068439;28;20509;-74
2021/04/06 06:09:35;;;;;;;8.00;3.72;;;-0.40;99.90;;;;;;5069290;28;20115;-74
2021/04/06 06:12:03;;;;;;;9.05;4.07;;;-0.30;99.90;;;;;;5068767;28;20035;-74
2021/04/06 06:14:34;;;;;;;8.43;4.07;;;-0.30;99.90;;;;;;5068712;28;20025;-74
2021/04/06 06:17:18;;;;;;;9.05;3.90;;;-0.10;99.90;;;;;;5070291;28;20026;-74
2021/04/06 06:19:46;;;;;;;6.40;4.07;;;0.10;99.90;;;;;;5068822;28;20040;-73
2021/04/06 06:22:22;;;;;;;10.23;4.13;;;0.30;99.90;;;;;;5068571;28;20060;-74
2021/04/06 06:24:50;;;;;;;6.95;4.40;;;0.50;99.90;;;;;;5068802;28;20020;-74
2021/04/06 06:27:24;;;;;;;5.20;3.50;;;0.60;99.90;;;;;;5069634;28;20028;-74
2021/04/06 06:29:50;;;;;;;6.63;4.03;;;0.60;99.90;;;;;;5068581;28;20489;-73
2021/04/06 06:32:22;;;;;;;10.07;4.60;;;0.50;99.90;;;;;;5068174;28;20033;-74
2021/04/06 06:34:49;;;;;;;;;;;0.70;99.90;;;;;;5069439;28;20032;-74
2021/04/06 06:37:26;;;;;;;6.13;3.13;;;0.80;99.90;;;;;;5068388;28;20393;-74
2021/04/06 06:39:59;;;;;;;7.35;4.45;;;0.90;99.90;;;;;;5067973;28;20032;-74
2021/04/06 06:42:37;;;;;;;7.18;3.85;;;0.90;99.90;;;;;;5068051;28;20027;-74
2021/04/06 06:45:20;;;;;;;6.80;3.38;;;1.00;99.90;;;;;;5067969;28;20027;-74
2021/04/06 06:47:54;;;;;;;7.25;4.30;;;0.80;99.90;;;;;;5067817;28;20538;-74
2021/04/06 06:50:20;;;;;;;7.07;3.53;;;0.90;99.90;;;;;;5068074;28;20070;-74
2021/04/06 06:52:51;;;;;;;7.07;3.35;;;1.00;99.90;;;;;;5067772;28;20021;-74
2021/04/06 06:55:21;;;;;;;6.85;3.95;;;1.00;99.90;;;;;;5067770;28;20025;-74
2021/04/06 06:57:48;;;;;;;6.70;3.47;;;0.90;99.90;;;;;;5067606;28;20035;-74
2021/04/06 07:00:21;;;;;;;3.67;3.13;;;0.90;99.90;;;;;;5067755;28;20580;-75
2021/04/06 07:02:47;;;;;;;10.48;3.83;;;1.00;99.90;;;;;;5070160;28;20028;-75
2021/04/06 07:05:17;;;;;;;6.20;3.35;;;1.20;99.90;;;;;;5071590;28;20028;-75
2021/04/06 07:07:52;;;;;;;6.82;3.28;;;1.30;99.90;;;;;;5071564;28;20378;-75
2021/04/06 07:10:20;;;;;;;6.47;3.10;;;1.20;99.90;;;;;;5071579;28;20482;-75
2021/04/06 07:12:47;;;;;;;8.10;4.05;;;1.30;99.90;;;;;;5071453;28;20028;-75
2021/04/06 07:15:15;;;;;;;5.82;2.90;;;1.50;99.90;;;;;;5071437;28;20071;-75
2021/04/06 07:17:44;;;;;;;8.00;3.38;;;1.80;99.90;;;;;;5071242;28;20029;-75
2021/04/06 07:20:19;;;;;;;8.57;2.78;;;2.10;99.90;;;;;;5071651;28;20448;-75
2021/04/06 07:22:47;;;;;;;5.07;3.28;;;2.30;99.90;;;;;;5071212;28;20071;-75
2021/04/06 07:25:14;;;;;;;6.47;3.33;;;2.20;99.90;;;;;;5071199;28;20020;-75
2021/04/06 07:27:43;;;;;;;4.68;2.97;;;2.00;99.90;;;;;;5072683;28;20035;-74
2021/04/06 07:30:12;;;;;;;4.78;2.88;;;2.00;99.90;;;;;;5072137;28;20039;-75
2021/04/06 07:32:42;;;;;;;5.97;3.10;;;2.10;99.90;;;;;;5072491;28;20371;-75
2021/04/06 07:35:09;;;;;;;4.50;2.58;;;2.10;99.90;;;;;;5070894;28;20073;-75
2021/04/06 07:37:43;;;;;;;6.88;3.15;;;2.30;99.90;;;;;;5070691;28;20119;-75
2021/04/06 07:40:20;;;;;;;5.88;3.47;;;2.50;99.90;;;;;;5070818;28;20024;-75
2021/04/06 07:42:47;;;;;;;4.68;3.03;;;2.70;99.90;;;;;;5071299;28;20062;-75
2021/04/06 07:45:22;;;;;;;8.75;3.55;;;3.10;99.90;;;;;;5070700;28;20043;-75
2021/04/06 07:47:48;;;;;;;5.95;3.53;;;3.40;99.90;;;;;;5070631;28;20028;-74
2021/04/06 07:50:32;;;;;;;7.10;2.88;;;3.60;99.90;;;;;;5071868;28;20032;-74
2021/04/06 07:53:20;;;;;;;5.10;3.13;;;3.70;99.90;;;;;;5070620;28;20494;-75
2021/04/06 07:55:47;;;;;;;7.78;3.40;;;3.80;99.90;;;;;;5070638;28;20032;-74
2021/04/06 07:58:49;;;;;;;4.40;2.50;;;3.70;99.90;;;;;;5071698;28;20031;-74
2021/04/06 08:01:34;;;;;;;7.43;2.78;;;3.60;99.90;;;;;;5067750;28;20536;-74
2021/04/06 08:04:05;;;;;;;8.63;3.10;;;3.20;99.90;;;;;;5071615;28;20488;-74
2021/04/06 08:06:48;;;;;;;9.80;3.42;;;2.90;99.90;;;;;;5071605;28;20040;-74
2021/04/06 08:09:29;;;;;;;6.18;2.80;;;3.10;99.90;;;;;;5070183;28;20025;-74
2021/04/06 08:12:14;;;;;;;5.05;2.75;;;2.90;99.90;;;;;;5070188;28;20097;-74
2021/04/06 08:14:55;;;;;;;10.45;2.67;;;2.90;99.90;;;;;;5071348;28;20024;-73
2021/04/06 08:17:27;;;;;;;5.57;1.98;;;2.70;99.90;;;;;;5070098;28;20032;-73
2021/04/06 08:20:05;;;;;;;7.60;3.80;;;2.40;99.90;;;;;;5071302;28;20017;-73
2021/04/06 08:22:43;;;;;;;8.60;2.13;;;2.40;99.90;;;;;;5071325;28;20017;-73
2021/04/06 08:25:26;;;;;;;3.92;1.88;;;2.30;99.90;;;;;;5070016;28;20016;-73
2021/04/06 08:27:53;;;;;;;7.35;1.98;;;2.30;99.90;;;;;;5074744;28;20030;-73
2021/04/06 08:30:19;;;;;;;5.57;2.08;;;2.30;99.90;;;;;;5080008;28;20044;-73
2021/04/06 08:35:45;;;;;;;7.43;2.13;;;2.20;99.90;;;;;;5075636;28;20031;-73
2021/04/06 08:38:20;;;;;;;3.42;1.75;;;2.20;99.90;;;;;;5065936;28;20028;-73
2021/04/06 08:40:49;;;;;;;6.55;1.98;;;2.20;99.90;;;;;;5072822;28;20026;-73
2021/04/06 08:43:18;;;;;;;5.82;2.05;;;2.20;99.90;;;;;;5071495;28;20112;-73
2021/04/06 08:46:01;;;;;;;5.68;2.15;;;2.10;99.90;;;;;;5070195;28;20428;-73
2021/04/06 08:48:52;;;;;;;8.15;2.17;;;1.90;99.90;;;;;;5069827;28;20028;-72
2021/04/06 08:51:37;;;;;;;4.95;2.10;;;1.80;99.90;;;;;;5069385;28;20048;-73
2021/04/06 08:54:03;;;;;;;5.35;2.05;;;1.70;99.90;;;;;;5069683;28;20440;-73
2021/04/06 08:56:35;;;;;;;5.68;2.47;;;1.80;99.90;;;;;;5069643;28;20037;-73
2021/04/06 08:59:14;;;;;;;8.40;3.13;;;1.90;99.90;;;;;;5070995;28;20504;-74
2021/04/06 09:01:41;;;;;;;6.35;2.42;;;2.10;99.90;;;;;;5070922;28;20428;-73
2021/04/06 09:04:12;;;;;;;7.93;2.70;;;2.30;99.90;;;;;;5070541;28;20025;-73
2021/04/06 09:06:37;;;;;;;13.48;2.40;;;2.50;99.90;;;;;;5069556;28;20390;-74
2021/04/06 09:09:32;;;;;;;6.93;2.10;;;2.70;99.90;;;;;;5069180;28;20024;-74
2021/04/06 09:12:00;;;;;;;5.18;2.20;;;3.10;99.90;;;;;;5060696;28;20036;-74
2021/04/06 09:14:29;;;;;;;4.18;2.10;;;3.60;99.90;;;;;;5069127;28;20027;-74
2021/04/06 09:16:55;;;;;;;6.95;2.53;;;4.00;99.90;;;;;;5068883;28;20078;-74
2021/04/06 09:19:23;;;;;;;6.10;2.42;;;4.40;99.90;;;;;;5068933;28;20024;-74
2021/04/06 09:21:52;;;;;;;5.95;2.63;;;4.90;99.90;;;;;;5069232;28;20047;-74
2021/04/06 09:24:19;;;;;;;10.52;2.40;;;4.60;99.90;;;;;;5068070;28;20031;-74
2021/04/06 09:26:46;;;;;;;6.80;2.28;;;4.10;99.90;;;;;;5068741;28;20020;-74
2021/04/06 09:29:21;;;;;;;5.20;2.30;;;3.90;99.90;;;;;;5070086;28;20482;-74
2021/04/06 09:31:49;;;;;;;4.30;2.63;;;3.70;99.90;;;;;;5069673;28;20064;-74
2021/04/06 09:34:21;;;;;;;6.45;2.50;;;3.60;99.90;;;;;;5068664;28;20190;-74
2021/04/06 09:36:56;;;;;;;7.63;2.30;;;3.50;99.90;;;;;;5068663;28;20048;-74
2021/04/06 09:39:22;;;;;;;5.80;2.50;;;3.50;99.90;;;;;;5069657;28;20512;-74
2021/04/06 09:41:48;;;;;;;6.90;2.42;;;3.60;99.90;;;;;;5070127;28;20028;-73
2021/04/06 09:44:17;;;;;;;7.25;2.45;;;3.60;99.90;;;;;;5068538;28;20028;-74
2021/04/06 09:46:44;;;;;;;7.78;1.98;;;3.70;99.90;;;;;;5069850;28;20028;-74
2021/04/06 09:49:11;;;;;;;5.18;2.20;;;4.00;99.90;;;;;;5069728;28;20024;-75
2021/04/06 09:51:38;;;;;;;4.20;2.42;;;4.20;99.90;;;;;;5068396;28;20028;-74
2021/04/06 09:54:05;;;;;;;3.60;2.15;;;5.30;99.90;;;;;;5069679;28;20103;-74
2021/04/06 09:56:33;;;;;;;5.65;2.60;;;6.10;99.90;;;;;;5069686;28;20035;-73
2021/04/06 09:58:59;;;;;;;5.63;2.70;;;6.50;95.50;;;;;;5069763;28;20024;-74
2021/04/06 10:01:27;;;;;;;7.28;3.13;;;7.60;90.70;;;;;;5068295;28;20546;-73
2021/04/06 10:03:59;;;;;;;4.50;2.38;;;8.40;85.30;;;;;;5068330;28;20371;-74
2021/04/06 10:06:40;;;;;;;5.47;2.03;;;8.60;76.70;;;;;;5069539;28;20017;-74
2021/04/06 10:09:19;;;;;;;3.88;1.73;;;8.10;78.60;;;;;;5069638;28;20520;-74
2021/04/06 10:11:46;;;;;;;6.13;2.10;;;7.50;80.40;;;;;;5069489;28;20500;-73
2021/04/06 10:14:12;;;;;;;5.07;1.90;;;7.10;79.20;;;;;;5069405;28;20021;-74
2021/04/06 10:16:37;;;;;;;5.65;2.10;;;7.10;81.70;;;;;;5068675;28;20028;-73
2021/04/06 10:19:22;;;;;;;4.03;2.13;;;6.70;81.10;;;;;;5069392;28;20477;-74
2021/04/06 10:22:13;;;;;;;3.80;1.70;;;6.60;84.70;;;;;;5069515;28;20024;-73
2021/04/06 10:24:52;;;;;;;4.90;1.80;;;7.50;77.80;;;;;;5068527;28;20423;-74
2021/04/06 10:27:27;;;;;;;4.10;1.80;;;6.80;77.50;;;;;;5068136;28;20031;-73
2021/04/06 10:29:56;;;;;;;3.70;1.85;;;6.40;81.70;;;;;;5068026;28;20028;-73
2021/04/06 10:32:23;;;;;;;8.05;2.60;;;6.00;85.10;;;;;;5069420;28;20021;-74
2021/04/06 10:34:54;;;;;;;6.05;2.42;;;5.60;86.00;;;;;;5069301;28;20393;-73
2021/04/06 10:37:20;;;;;;;5.35;2.55;;;5.30;86.90;;;;;;5072822;28;20032;-74
2021/04/06 10:39:46;;;;;;;5.88;2.78;;;4.90;90.80;;;;;;5072091;28;20017;-73
2021/04/06 10:42:13;;;;;;;7.85;2.67;;;4.60;91.80;;;;;;5072215;28;20020;-74
2021/04/06 10:44:40;;;;;;;6.28;2.40;;;4.10;94.00;;;;;;5074072;28;20048;-74
2021/04/06 10:47:06;;;;;;;4.82;2.38;;;3.90;96.40;;;;;;5074295;28;20020;-74
2021/04/06 10:49:32;;;;;;;5.82;2.85;;;3.90;97.60;;;;;;5073877;28;20023;-73
2021/04/06 10:52:01;;;;;;;4.82;2.47;;;3.70;98.00;;;;;;5073509;28;20099;-73
2021/04/06 10:54:27;;;;;;;7.45;2.92;;;3.60;99.40;;;;;;5073447;28;20162;-74
2021/04/06 10:56:57;;;;;;;6.57;2.13;;;3.60;99.90;;;;;;5073293;28;20048;-73
2021/04/06 10:59:35;;;;;;;3.72;1.90;;;3.60;99.90;;;;;;5071617;28;20028;-73
2021/04/06 11:02:02;;;;;;;5.07;2.20;;;3.90;99.90;;;;;;5072966;28;20024;-73
2021/04/06 11:04:36;;;;;;;11.00;4.85;;;4.20;99.90;;;;;;5071567;28;20450;-74
2021/04/06 11:07:04;;;;;;;5.82;3.00;;;4.40;99.90;;;;;;5071609;28;20020;-74
2021/04/06 11:09:42;;;;;;;7.45;2.47;;;4.50;99.90;;;;;;5071438;28;20028;-74
2021/04/06 11:12:09;;;;;;;6.43;2.35;;;4.50;98.10;;;;;;5071480;28;20021;-74
2021/04/06 11:14:35;;;;;;;4.22;2.28;;;4.50;97.50;;;;;;5071519;28;20058;-73
2021/04/06 11:17:05;;;;;;;7.32;3.30;;;4.50;97.10;;;;;;5071280;28;20044;-74
2021/04/06 11:19:32;;;;;;;8.48;2.67;;;4.60;97.90;;;;;;5071430;28;20512;-73
2021/04/06 11:22:04;;;;;;;5.30;2.30;;;4.60;96.80;;;;;;5072602;28;20102;-73
2021/04/06 11:24:31;;;;;;;5.65;2.20;;;4.90;97.40;;;;;;5072852;28;20066;-72
2021/04/06 11:26:58;;;;;;;3.17;1.95;;;4.80;97.20;;;;;;5072404;28;20021;-74
2021/04/06 11:29:26;;;;;;;8.48;3.83;;;4.50;97.20;;;;;;5072556;28;20090;-73
2021/04/06 11:32:00;;;;;;;6.38;3.63;;;4.20;97.80;;;;;;5056565;22;20052;-75
2021/04/06 11:34:27;;;;;;;5.50;2.45;;;4.00;99.90;;;;;;5031488;28;20048;-73
2021/04/06 11:36:52;;;;;;;6.90;2.05;;;4.00;99.00;;;;;;5032680;28;20022;-72
2021/04/06 11:39:20;;;;;;;4.18;2.40;;;4.10;99.90;;;;;;5031191;28;20548;-74
2021/04/06 11:41:48;;;;;;;6.15;2.28;;;4.20;99.90;;;;;;5031563;28;20393;-73
2021/04/06 11:44:15;;;;;;;6.90;1.95;;;5.30;99.90;;;;;;5031281;28;20055;-72
2021/04/06 11:46:41;;;;;;;5.28;1.98;;;9.10;85.20;;;;;;5031389;28;20029;-74
2021/04/06 11:49:09;;;;;;;3.35;1.80;;;11.90;63.30;;;;;;5031060;28;20028;-73
2021/04/06 11:51:36;;;;;;;3.05;1.58;;;12.40;54.20;;;;;;5031316;28;20041;-73
2021/04/06 11:54:02;;;;;;;3.08;1.55;;;13.00;54.50;;;;;;5031772;28;20067;-76
2021/04/06 11:56:27;;;;;;;3.72;1.60;;;13.70;51.60;;;;;;5031507;28;20411;-73
2021/04/06 11:58:53;;;;;;;4.68;2.00;;;12.50;52.10;;;;;;5031262;28;20025;-72
2021/04/06 12:01:19;;;;;;;3.47;1.80;;;10.50;56.00;;;;;;5031140;28;20021;-72
2021/04/06 12:03:44;;;;;;;2.70;1.67;;;10.00;58.20;;;;;;5032826;28;20079;-72
2021/04/06 12:06:10;;;;;;;5.57;1.98;;;10.30;59.10;;;;;;5031271;28;20013;-73
2021/04/06 12:08:36;;;;;;;2.80;1.60;;;11.90;54.70;;;;;;5031701;28;20479;-73
2021/04/06 12:11:02;;;;;;;5.03;1.92;;;14.00;51.00;;;;;;5030977;28;20030;-73
2021/04/06 12:13:29;;;;;;;2.78;1.50;;;14.60;48.10;;;;;;5031456;28;20048;-73
2021/04/06 12:15:55;;;;;;;4.22;1.88;;;12.50;49.70;;;;;;5031051;28;20030;-73
2021/04/06 12:18:21;;;;;;;2.72;1.67;;;10.80;54.80;;;;;;5031016;28;20025;-72
2021/04/06 12:20:46;;;;;;;3.95;1.80;;;10.50;54.80;;;;;;5030638;28;20036;-72
2021/04/06 12:23:12;;;;;;;3.60;1.60;;;10.50;54.30;;;;;;5030883;28;20402;-73
2021/04/06 12:25:38;;;;;;;5.95;2.13;;;10.80;54.60;;;;;;5031495;28;20029;-72
2021/04/06 12:28:04;;;;;;;4.20;1.60;;;10.80;54.60;;;;;;5032023;28;20032;-72
2021/04/06 12:30:29;;;;;;;4.72;1.50;;;10.10;56.00;;;;;;5031947;28;20036;-74
2021/04/06 12:32:56;;;;;;;3.53;1.90;;;9.30;57.10;;;;;;5031996;28;20025;-73
2021/04/06 12:35:22;;;;;;;4.32;1.48;;;8.40;59.50;;;;;;5030594;28;20037;-73
2021/04/06 12:37:47;;;;;;;4.60;3.15;;;7.70;63.00;;;;;;5030655;28;20029;-73
2021/04/06 12:40:13;;;;;;;6.63;1.60;;;7.20;62.60;;;;;;5030438;28;20017;-73
2021/04/06 12:42:39;;;;;;;3.17;1.90;;;7.30;65.00;;;;;;5030366;28;20433;-74
2021/04/06 12:45:08;;;;;;;2.78;1.60;;;8.90;62.40;;;;;;5030200;28;20021;-73
2021/04/06 12:47:34;;;;;;;4.10;2.92;;;9.80;57.40;;;;;;5030166;28;20621;-74
2021/04/06 12:49:59;;;;;;;4.43;1.88;;;9.00;60.60;;;;;;5029921;28;20049;-73
2021/04/06 12:52:25;;;;;;;3.97;1.92;;;8.50;61.60;;;;;;5030223;28;20022;-73
2021/04/06 12:54:51;;;;;;;3.50;2.08;;;8.80;65.50;;;;;;5029683;28;20402;-73
2021/04/06 12:57:17;;;;;;;4.55;1.98;;;9.80;56.30;;;;;;5029572;28;20032;-73
2021/04/06 12:59:42;;;;;;;5.35;1.70;;;10.00;57.70;;;;;;5030556;28;20521;-73
2021/04/06 13:02:08;;;;;;;4.47;1.83;;;10.90;58.80;;;;;;5031028;28;20527;-75
2021/04/06 13:04:34;;;;;;;3.33;1.52;;;13.10;52.70;;;;;;5029932;28;20026;-74
2021/04/06 13:06:59;;;;;;;5.10;1.63;;;14.70;50.10;;;;;;5029539;28;20031;-74